Terminal Aerodrome Forecast
Issued by NWS Cleveland, OH

Home | Current Version | Previous Version | Text Only | Print | Product List | Glossary Off
Versions: 1 2 3 4 5 6 7 8 9 10 11 12 13 14 15 16 17 18

000
FTUS41 KCLE 301700
TAFMFD
TAF
KMFD 301731Z 3018/0118 36010KT P6SM BKN015 OVC050
      TEMPO 3018/3022 SCT015 OVC050
     FM010100 35007KT 5SM BR VCSH OVC007
     FM010900 34007KT P6SM BKN012 OVC020
     FM011200 35005KT P6SM BKN060=

USA.gov is the U.S. government's official web portal to all federal, state and local government web resources and services.